sensor_id;sensor_type;location;lat;lon;timestamp;pressure;altitude;pressure_sealevel;temperature;humidity
15489;BME280;7846;48.830;9.116;2022-10-15T00:01:40;97145.06;;;21.36;65.61
15489;BME280;7846;48.830;9.116;2022-10-15T00:04:06;97140.78;;;21.91;64.02
15489;BME280;7846;48.830;9.116;2022-10-15T00:06:32;97143.53;;;23.01;60.79
15489;BME280;7846;48.830;9.116;2022-10-15T00:08:59;97138.00;;;22.63;61.28
15489;BME280;7846;48.830;9.116;2022-10-15T00:11:26;97128.72;;;22.49;62.30
15489;BME280;7846;48.830;9.116;2022-10-15T00:13:53;97127.59;;;22.23;62.37
15489;BME280;7846;48.830;9.116;2022-10-15T00:16:21;97128.81;;;22.81;61.43
15489;BME280;7846;48.830;9.116;2022-10-15T00:18:48;97122.09;;;22.84;61.07
15489;BME280;7846;48.830;9.116;2022-10-15T00:21:16;97120.16;;;23.01;60.99
15489;BME280;7846;48.830;9.116;2022-10-15T00:23:42;97122.69;;;22.86;60.88
15489;BME280;7846;48.830;9.116;2022-10-15T00:26:10;97132.38;;;23.14;61.00
15489;BME280;7846;48.830;9.116;2022-10-15T00:28:36;97126.25;;;23.18;60.04
15489;BME280;7846;48.830;9.116;2022-10-15T00:31:06;97124.72;;;22.52;62.09
15489;BME280;7846;48.830;9.116;2022-10-15T00:33:32;97125.69;;;22.67;61.38
15489;BME280;7846;48.830;9.116;2022-10-15T00:36:02;97121.50;;;23.63;59.20
15489;BME280;7846;48.830;9.116;2022-10-15T00:38:30;97128.25;;;23.33;59.84
15489;BME280;7846;48.830;9.116;2022-10-15T00:40:56;97132.09;;;23.10;60.77
15489;BME280;7846;48.830;9.116;2022-10-15T00:46:14;97127.25;;;22.85;61.52
15489;BME280;7846;48.830;9.116;2022-10-15T00:48:43;97114.34;;;22.60;62.33
15489;BME280;7846;48.830;9.116;2022-10-15T00:51:11;97114.47;;;22.70;62.07
15489;BME280;7846;48.830;9.116;2022-10-15T00:53:37;97120.50;;;22.34;63.13
15489;BME280;7846;48.830;9.116;2022-10-15T00:56:02;97117.81;;;22.34;63.56
15489;BME280;7846;48.830;9.116;2022-10-15T00:58:30;97110.06;;;22.59;62.81
15489;BME280;7846;48.830;9.116;2022-10-15T01:00:56;97108.78;;;22.18;63.69
15489;BME280;7846;48.830;9.116;2022-10-15T01:03:24;97107.53;;;22.09;64.27
15489;BME280;7846;48.830;9.116;2022-10-15T01:05:51;97111.69;;;22.38;63.64
15489;BME280;7846;48.830;9.116;2022-10-15T01:08:17;97098.28;;;22.16;64.01
15489;BME280;7846;48.830;9.116;2022-10-15T01:11:10;97100.16;;;22.38;63.45
15489;BME280;7846;48.830;9.116;2022-10-15T01:16:48;97087.69;;;22.27;64.01
15489;BME280;7846;48.830;9.116;2022-10-15T01:22:21;97086.91;;;22.09;63.88
15489;BME280;7846;48.830;9.116;2022-10-15T01:27:35;97091.63;;;22.19;64.63
15489;BME280;7846;48.830;9.116;2022-10-15T01:30:12;97096.00;;;22.08;65.00
15489;BME280;7846;48.830;9.116;2022-10-15T01:32:55;97089.50;;;22.21;64.91
15489;BME280;7846;48.830;9.116;2022-10-15T01:35:43;97078.22;;;22.68;64.21
15489;BME280;7846;48.830;9.116;2022-10-15T01:40:49;97088.94;;;22.02;65.96
15489;BME280;7846;48.830;9.116;2022-10-15T01:43:22;97078.88;;;22.31;65.00
15489;BME280;7846;48.830;9.116;2022-10-15T01:45:57;97084.38;;;22.41;64.40
15489;BME280;7846;48.830;9.116;2022-10-15T01:48:26;97078.63;;;22.11;66.15
15489;BME280;7846;48.830;9.116;2022-10-15T01:50:57;97073.84;;;22.62;64.25
15489;BME280;7846;48.830;9.116;2022-10-15T01:53:27;97067.28;;;22.48;65.23
15489;BME280;7846;48.830;9.116;2022-10-15T01:55:59;97067.66;;;22.12;66.46
15489;BME280;7846;48.830;9.116;2022-10-15T01:58:28;97068.91;;;22.27;65.55
15489;BME280;7846;48.830;9.116;2022-10-15T02:00:57;97067.38;;;21.70;67.14
15489;BME280;7846;48.830;9.116;2022-10-15T02:03:23;97078.06;;;22.09;66.19
15489;BME280;7846;48.830;9.116;2022-10-15T02:06:07;97071.78;;;22.42;65.17
15489;BME280;7846;48.830;9.116;2022-10-15T02:08:50;97078.88;;;22.53;64.96
15489;BME280;7846;48.830;9.116;2022-10-15T02:11:20;97076.38;;;22.03;65.95
15489;BME280;7846;48.830;9.116;2022-10-15T02:13:55;97068.72;;;22.11;65.98
15489;BME280;7846;48.830;9.116;2022-10-15T02:16:52;97077.25;;;22.08;66.23
15489;BME280;7846;48.830;9.116;2022-10-15T02:19:49;97066.81;;;22.29;65.23
15489;BME280;7846;48.830;9.116;2022-10-15T02:22:20;97072.41;;;22.27;65.93
15489;BME280;7846;48.830;9.116;2022-10-15T02:24:58;97086.25;;;22.41;65.23
15489;BME280;7846;48.830;9.116;2022-10-15T02:27:28;97081.44;;;22.43;65.24
15489;BME280;7846;48.830;9.116;2022-10-15T02:29:55;97076.59;;;22.18;66.18
15489;BME280;7846;48.830;9.116;2022-10-15T02:32:23;97081.84;;;22.30;66.02
15489;BME280;7846;48.830;9.116;2022-10-15T02:34:50;97091.75;;;22.29;65.50
15489;BME280;7846;48.830;9.116;2022-10-15T02:37:20;97085.31;;;22.52;65.07
15489;BME280;7846;48.830;9.116;2022-10-15T02:39:47;97092.84;;;22.11;65.79
15489;BME280;7846;48.830;9.116;2022-10-15T02:42:14;97099.63;;;22.14;66.24
15489;BME280;7846;48.830;9.116;2022-10-15T02:44:41;97096.09;;;21.58;68.20
15489;BME280;7846;48.830;9.116;2022-10-15T02:47:07;97100.72;;;21.79;66.80
15489;BME280;7846;48.830;9.116;2022-10-15T02:49:32;97104.78;;;21.65;67.37
15489;BME280;7846;48.830;9.116;2022-10-15T02:51:58;97095.38;;;22.01;66.36
15489;BME280;7846;48.830;9.116;2022-10-15T02:54:23;97095.06;;;22.36;66.51
15489;BME280;7846;48.830;9.116;2022-10-15T02:56:49;97086.31;;;22.24;66.39
15489;BME280;7846;48.830;9.116;2022-10-15T02:59:15;97093.53;;;22.73;64.82
15489;BME280;7846;48.830;9.116;2022-10-15T03:01:43;97097.16;;;22.34;65.96
15489;BME280;7846;48.830;9.116;2022-10-15T03:04:09;97096.81;;;22.09;66.18
15489;BME280;7846;48.830;9.116;2022-10-15T03:06:35;97098.78;;;22.35;65.33
15489;BME280;7846;48.830;9.116;2022-10-15T03:09:01;97100.03;;;22.50;65.14
15489;BME280;7846;48.830;9.116;2022-10-15T03:11:27;97101.16;;;22.32;65.97
15489;BME280;7846;48.830;9.116;2022-10-15T03:13:54;97097.91;;;22.30;65.68
15489;BME280;7846;48.830;9.116;2022-10-15T03:16:19;97102.03;;;22.37;65.63
15489;BME280;7846;48.830;9.116;2022-10-15T03:18:44;97104.19;;;22.62;64.74
15489;BME280;7846;48.830;9.116;2022-10-15T03:21:10;97097.25;;;22.66;64.33
15489;BME280;7846;48.830;9.116;2022-10-15T03:23:36;97096.47;;;22.66;64.74
15489;BME280;7846;48.830;9.116;2022-10-15T03:26:04;97106.44;;;22.70;64.55
15489;BME280;7846;48.830;9.116;2022-10-15T03:28:29;97098.91;;;22.73;64.43
15489;BME280;7846;48.830;9.116;2022-10-15T03:30:55;97100.47;;;22.19;66.08
15489;BME280;7846;48.830;9.116;2022-10-15T03:33:21;97110.56;;;22.34;65.48
15489;BME280;7846;48.830;9.116;2022-10-15T03:35:46;97107.22;;;22.71;64.67
15489;BME280;7846;48.830;9.116;2022-10-15T03:38:12;97116.75;;;22.84;64.22
15489;BME280;7846;48.830;9.116;2022-10-15T03:40:40;97112.44;;;22.56;65.38
15489;BME280;7846;48.830;9.116;2022-10-15T03:43:05;97118.63;;;22.34;65.91
15489;BME280;7846;48.830;9.116;2022-10-15T03:45:31;97116.81;;;22.40;66.12
15489;BME280;7846;48.830;9.116;2022-10-15T03:47:56;97120.63;;;22.44;66.09
15489;BME280;7846;48.830;9.116;2022-10-15T03:50:22;97121.44;;;22.22;66.27
15489;BME280;7846;48.830;9.116;2022-10-15T03:52:47;97121.75;;;22.48;66.26
15489;BME280;7846;48.830;9.116;2022-10-15T03:55:13;97132.34;;;22.60;64.49
15489;BME280;7846;48.830;9.116;2022-10-15T03:57:39;97137.31;;;22.73;65.29
15489;BME280;7846;48.830;9.116;2022-10-15T04:00:08;97135.28;;;23.07;64.29
15489;BME280;7846;48.830;9.116;2022-10-15T04:02:34;97126.34;;;22.53;65.57
15489;BME280;7846;48.830;9.116;2022-10-15T04:04:59;97140.09;;;23.37;62.95
15489;BME280;7846;48.830;9.116;2022-10-15T04:07:24;97133.91;;;23.37;63.16
15489;BME280;7846;48.830;9.116;2022-10-15T04:09:51;97130.28;;;23.21;63.40
15489;BME280;7846;48.830;9.116;2022-10-15T04:12:17;97138.44;;;23.31;63.23
15489;BME280;7846;48.830;9.116;2022-10-15T04:14:42;97148.19;;;23.70;61.81
15489;BME280;7846;48.830;9.116;2022-10-15T04:17:08;97143.69;;;23.48;62.73
15489;BME280;7846;48.830;9.116;2022-10-15T04:19:33;97138.91;;;23.23;63.48
15489;BME280;7846;48.830;9.116;2022-10-15T04:21:59;97140.63;;;23.07;63.61
15489;BME280;7846;48.830;9.116;2022-10-15T04:24:25;97151.25;;;23.24;63.38
15489;BME280;7846;48.830;9.116;2022-10-15T04:26:50;97157.06;;;23.43;62.30
15489;BME280;7846;48.830;9.116;2022-10-15T04:29:16;97154.00;;;23.29;62.51
15489;BME280;7846;48.830;9.116;2022-10-15T04:31:42;97149.59;;;23.82;61.76
15489;BME280;7846;48.830;9.116;2022-10-15T04:34:09;97153.91;;;23.83;61.64
15489;BME280;7846;48.830;9.116;2022-10-15T04:36:35;97158.19;;;23.79;61.38
15489;BME280;7846;48.830;9.116;2022-10-15T04:39:01;97160.34;;;23.82;61.66
15489;BME280;7846;48.830;9.116;2022-10-15T04:41:27;97154.38;;;23.75;61.67
15489;BME280;7846;48.830;9.116;2022-10-15T04:43:52;97157.47;;;23.94;61.02
15489;BME280;7846;48.830;9.116;2022-10-15T04:46:18;97153.69;;;23.95;61.09
15489;BME280;7846;48.830;9.116;2022-10-15T04:48:46;97162.91;;;23.99;60.87
15489;BME280;7846;48.830;9.116;2022-10-15T04:51:18;97162.81;;;23.89;61.06
15489;BME280;7846;48.830;9.116;2022-10-15T04:53:43;97164.13;;;23.86;60.90
15489;BME280;7846;48.830;9.116;2022-10-15T04:56:11;97169.19;;;23.78;61.19
15489;BME280;7846;48.830;9.116;2022-10-15T04:58:41;97173.31;;;23.90;61.51
15489;BME280;7846;48.830;9.116;2022-10-15T05:01:09;97172.47;;;23.85;61.15
15489;BME280;7846;48.830;9.116;2022-10-15T05:03:38;97167.72;;;24.02;60.73
15489;BME280;7846;48.830;9.116;2022-10-15T05:06:06;97161.31;;;24.03;60.69
15489;BME280;7846;48.830;9.116;2022-10-15T05:08:35;97160.31;;;24.20;60.64
15489;BME280;7846;48.830;9.116;2022-10-15T05:11:02;97168.66;;;24.23;59.90
15489;BME280;7846;48.830;9.116;2022-10-15T05:13:29;97181.16;;;23.97;60.54
15489;BME280;7846;48.830;9.116;2022-10-15T05:15:54;97186.50;;;23.92;60.75
15489;BME280;7846;48.830;9.116;2022-10-15T05:18:23;97187.84;;;23.95;60.83
15489;BME280;7846;48.830;9.116;2022-10-15T05:20:48;97190.63;;;24.10;60.25
15489;BME280;7846;48.830;9.116;2022-10-15T05:23:13;97200.34;;;24.11;60.29
15489;BME280;7846;48.830;9.116;2022-10-15T05:25:40;97204.47;;;23.86;60.79
15489;BME280;7846;48.830;9.116;2022-10-15T05:28:05;97206.44;;;23.96;60.74
15489;BME280;7846;48.830;9.116;2022-10-15T05:30:33;97201.06;;;24.01;60.52
15489;BME280;7846;48.830;9.116;2022-10-15T05:32:58;97205.28;;;23.87;60.49
15489;BME280;7846;48.830;9.116;2022-10-15T05:35:24;97204.84;;;23.68;61.49
15489;BME280;7846;48.830;9.116;2022-10-15T05:37:50;97202.38;;;23.99;60.48
15489;BME280;7846;48.830;9.116;2022-10-15T05:40:15;97216.31;;;23.31;62.15
15489;BME280;7846;48.830;9.116;2022-10-15T05:42:40;97217.53;;;23.46;61.79
15489;BME280;7846;48.830;9.116;2022-10-15T05:45:06;97215.94;;;23.77;60.87
15489;BME280;7846;48.830;9.116;2022-10-15T05:47:31;97211.91;;;23.74;61.07
15489;BME280;7846;48.830;9.116;2022-10-15T05:49:58;97206.84;;;23.83;60.06
15489;BME280;7846;48.830;9.116;2022-10-15T05:52:23;97206.44;;;24.01;60.15
15489;BME280;7846;48.830;9.116;2022-10-15T05:54:49;97211.75;;;23.91;60.38
15489;BME280;7846;48.830;9.116;2022-10-15T05:57:16;97214.00;;;23.67;60.82
15489;BME280;7846;48.830;9.116;2022-10-15T05:59:42;97221.78;;;24.01;59.71
15489;BME280;7846;48.830;9.116;2022-10-15T06:02:09;97227.47;;;24.09;59.23
15489;BME280;7846;48.830;9.116;2022-10-15T06:04:39;97230.97;;;24.10;59.73
15489;BME280;7846;48.830;9.116;2022-10-15T06:07:05;97231.34;;;24.24;59.46
15489;BME280;7846;48.830;9.116;2022-10-15T06:09:30;97242.91;;;24.24;59.84
15489;BME280;7846;48.830;9.116;2022-10-15T06:11:58;97246.75;;;23.96;59.58
15489;BME280;7846;48.830;9.116;2022-10-15T06:14:23;97249.84;;;24.15;59.50
15489;BME280;7846;48.830;9.116;2022-10-15T06:16:50;97246.25;;;23.99;59.62
15489;BME280;7846;48.830;9.116;2022-10-15T06:19:16;97249.78;;;24.05;59.30
15489;BME280;7846;48.830;9.116;2022-10-15T06:21:42;97265.50;;;23.91;59.26
15489;BME280;7846;48.830;9.116;2022-10-15T06:24:07;97263.09;;;23.35;60.73
15489;BME280;7846;48.830;9.116;2022-10-15T06:26:33;97267.75;;;23.67;60.06
15489;BME280;7846;48.830;9.116;2022-10-15T06:28:59;97261.38;;;23.78;60.21
15489;BME280;7846;48.830;9.116;2022-10-15T06:31:25;97265.19;;;24.14;59.30
15489;BME280;7846;48.830;9.116;2022-10-15T06:33:50;97271.97;;;23.90;59.38
15489;BME280;7846;48.830;9.116;2022-10-15T06:36:17;97274.84;;;24.10;59.60
15489;BME280;7846;48.830;9.116;2022-10-15T06:38:45;97283.41;;;24.07;59.28
15489;BME280;7846;48.830;9.116;2022-10-15T06:41:11;97296.38;;;23.83;59.63
15489;BME280;7846;48.830;9.116;2022-10-15T06:43:37;97296.88;;;23.80;59.85
15489;BME280;7846;48.830;9.116;2022-10-15T06:46:04;97291.81;;;24.16;59.32
15489;BME280;7846;48.830;9.116;2022-10-15T06:48:31;97290.91;;;24.05;59.57
15489;BME280;7846;48.830;9.116;2022-10-15T06:51:00;97299.09;;;24.53;58.72
15489;BME280;7846;48.830;9.116;2022-10-15T06:53:27;97303.06;;;24.45;57.55
15489;BME280;7846;48.830;9.116;2022-10-15T06:55:58;97310.22;;;24.67;58.24
15489;BME280;7846;48.830;9.116;2022-10-15T06:58:28;97310.81;;;24.84;57.97
15489;BME280;7846;48.830;9.116;2022-10-15T07:01:02;97322.47;;;24.95;57.42
15489;BME280;7846;48.830;9.116;2022-10-15T07:03:29;97320.78;;;24.83;57.87
15489;BME280;7846;48.830;9.116;2022-10-15T07:05:55;97326.44;;;24.82;58.13
15489;BME280;7846;48.830;9.116;2022-10-15T07:08:24;97332.13;;;24.91;57.76
15489;BME280;7846;48.830;9.116;2022-10-15T07:10:50;97335.63;;;24.86;57.83
15489;BME280;7846;48.830;9.116;2022-10-15T07:13:20;97334.63;;;24.55;57.86
15489;BME280;7846;48.830;9.116;2022-10-15T07:15:48;97344.19;;;24.78;57.98
15489;BME280;7846;48.830;9.116;2022-10-15T07:18:19;97346.31;;;24.71;58.12
15489;BME280;7846;48.830;9.116;2022-10-15T07:20:44;97347.75;;;24.89;57.64
15489;BME280;7846;48.830;9.116;2022-10-15T07:23:13;97345.34;;;24.92;57.47
15489;BME280;7846;48.830;9.116;2022-10-15T07:25:40;97351.78;;;24.91;57.22
15489;BME280;7846;48.830;9.116;2022-10-15T07:28:07;97349.53;;;24.73;58.46
15489;BME280;7846;48.830;9.116;2022-10-15T07:30:33;97347.19;;;24.86;57.61
15489;BME280;7846;48.830;9.116;2022-10-15T07:32:59;97348.78;;;25.30;57.08
15489;BME280;7846;48.830;9.116;2022-10-15T07:35:26;97354.72;;;25.32;57.34
15489;BME280;7846;48.830;9.116;2022-10-15T07:37:52;97358.81;;;25.45;56.31
15489;BME280;7846;48.830;9.116;2022-10-15T07:40:18;97360.66;;;25.34;56.11
15489;BME280;7846;48.830;9.116;2022-10-15T07:42:43;97354.38;;;25.13;56.77
15489;BME280;7846;48.830;9.116;2022-10-15T07:45:11;97366.50;;;24.73;57.60
15489;BME280;7846;48.830;9.116;2022-10-15T07:47:39;97362.09;;;24.57;58.10
15489;BME280;7846;48.830;9.116;2022-10-15T07:50:05;97361.47;;;24.87;57.51
15489;BME280;7846;48.830;9.116;2022-10-15T07:52:30;97367.22;;;25.01;56.67
15489;BME280;7846;48.830;9.116;2022-10-15T07:54:57;97373.22;;;24.38;58.04
15489;BME280;7846;48.830;9.116;2022-10-15T07:57:22;97376.66;;;24.29;58.04
15489;BME280;7846;48.830;9.116;2022-10-15T07:59:48;97384.59;;;23.86;58.80
15489;BME280;7846;48.830;9.116;2022-10-15T08:02:16;97390.22;;;23.63;60.03
15489;BME280;7846;48.830;9.116;2022-10-15T08:04:43;97378.88;;;24.10;59.00
15489;BME280;7846;48.830;9.116;2022-10-15T08:07:10;97387.56;;;23.90;58.87
15489;BME280;7846;48.830;9.116;2022-10-15T08:09:35;97394.94;;;23.29;60.96
15489;BME280;7846;48.830;9.116;2022-10-15T08:12:01;97386.72;;;23.62;60.31
15489;BME280;7846;48.830;9.116;2022-10-15T08:14:30;97383.97;;;23.35;60.66
15489;BME280;7846;48.830;9.116;2022-10-15T08:16:57;97388.53;;;23.57;60.92
15489;BME280;7846;48.830;9.116;2022-10-15T08:19:22;97380.75;;;23.77;60.30
15489;BME280;7846;48.830;9.116;2022-10-15T08:21:49;97380.09;;;24.24;58.78
15489;BME280;7846;48.830;9.116;2022-10-15T08:24:15;97380.78;;;23.60;61.18
15489;BME280;7846;48.830;9.116;2022-10-15T08:26:40;97388.34;;;23.41;61.06
15489;BME280;7846;48.830;9.116;2022-10-15T08:29:06;97380.22;;;23.80;60.48
15489;BME280;7846;48.830;9.116;2022-10-15T08:31:31;97389.31;;;23.13;62.44
15489;BME280;7846;48.830;9.116;2022-10-15T08:34:00;97377.09;;;23.23;63.39
15489;BME280;7846;48.830;9.116;2022-10-15T08:36:28;97379.97;;;23.16;61.74
15489;BME280;7846;48.830;9.116;2022-10-15T08:38:53;97385.84;;;24.33;60.39
15489;BME280;7846;48.830;9.116;2022-10-15T08:41:40;97383.22;;;24.80;57.92
15489;BME280;7846;48.830;9.116;2022-10-15T08:44:25;97393.75;;;24.82;58.34
15489;BME280;7846;48.830;9.116;2022-10-15T08:46:58;97390.78;;;24.78;58.88
15489;BME280;7846;48.830;9.116;2022-10-15T08:49:32;97398.03;;;24.78;58.04
15489;BME280;7846;48.830;9.116;2022-10-15T08:54:43;97393.13;;;24.37;59.67
15489;BME280;7846;48.830;9.116;2022-10-15T09:00:16;97388.97;;;24.25;60.18
15489;BME280;7846;48.830;9.116;2022-10-15T09:03:35;97388.91;;;24.84;59.02
15489;BME280;7846;48.830;9.116;2022-10-15T09:09:11;97405.94;;;24.90;59.06
15489;BME280;7846;48.830;9.116;2022-10-15T09:13:41;97402.56;;;25.72;56.95
15489;BME280;7846;48.830;9.116;2022-10-15T09:16:16;97407.75;;;25.79;56.77
15489;BME280;7846;48.830;9.116;2022-10-15T09:18:48;97404.94;;;25.58;57.32
15489;BME280;7846;48.830;9.116;2022-10-15T09:21:15;97399.78;;;24.30;59.77
15489;BME280;7846;48.830;9.116;2022-10-15T09:23:42;97398.34;;;25.24;58.67
15489;BME280;7846;48.830;9.116;2022-10-15T09:28:42;97410.84;;;24.06;61.89
15489;BME280;7846;48.830;9.116;2022-10-15T09:31:48;97417.09;;;23.85;61.34
15489;BME280;7846;48.830;9.116;2022-10-15T09:34:23;97408.47;;;24.37;61.09
15489;BME280;7846;48.830;9.116;2022-10-15T09:36:56;97416.56;;;25.59;58.01
15489;BME280;7846;48.830;9.116;2022-10-15T09:39:41;97421.19;;;25.11;59.48
15489;BME280;7846;48.830;9.116;2022-10-15T09:42:28;97425.56;;;24.53;60.56
15489;BME280;7846;48.830;9.116;2022-10-15T09:44:58;97425.56;;;24.53;61.28
15489;BME280;7846;48.830;9.116;2022-10-15T09:47:27;97429.13;;;24.96;61.33
15489;BME280;7846;48.830;9.116;2022-10-15T09:49:53;97431.25;;;24.89;61.30
15489;BME280;7846;48.830;9.116;2022-10-15T09:57:52;97420.00;;;25.49;59.71
15489;BME280;7846;48.830;9.116;2022-10-15T10:00:18;97424.41;;;25.13;59.11
15489;BME280;7846;48.830;9.116;2022-10-15T10:03:07;97432.63;;;25.44;59.23
15489;BME280;7846;48.830;9.116;2022-10-15T10:05:39;97431.13;;;25.63;57.90
15489;BME280;7846;48.830;9.116;2022-10-15T10:08:22;97435.09;;;26.44;55.63
15489;BME280;7846;48.830;9.116;2022-10-15T10:10:56;97438.34;;;26.36;56.35
15489;BME280;7846;48.830;9.116;2022-10-15T10:13:27;97436.16;;;25.02;59.11
15489;BME280;7846;48.830;9.116;2022-10-15T10:15:55;97444.91;;;23.96;60.74
15489;BME280;7846;48.830;9.116;2022-10-15T10:18:26;97440.41;;;23.79;61.03
15489;BME280;7846;48.830;9.116;2022-10-15T10:23:46;97438.81;;;23.78;61.39
15489;BME280;7846;48.830;9.116;2022-10-15T10:26:12;97444.22;;;23.83;60.61
15489;BME280;7846;48.830;9.116;2022-10-15T10:28:52;97436.63;;;24.89;58.87
15489;BME280;7846;48.830;9.116;2022-10-15T10:31:27;97440.53;;;24.71;59.32
15489;BME280;7846;48.830;9.116;2022-10-15T10:33:53;97443.63;;;24.57;59.52
15489;BME280;7846;48.830;9.116;2022-10-15T10:36:34;97452.47;;;23.99;59.01
15489;BME280;7846;48.830;9.116;2022-10-15T10:42:01;97449.84;;;24.95;57.87
15489;BME280;7846;48.830;9.116;2022-10-15T10:44:39;97450.50;;;25.55;56.02
15489;BME280;7846;48.830;9.116;2022-10-15T10:47:22;97454.19;;;26.06;55.36
15489;BME280;7846;48.830;9.116;2022-10-15T10:49:57;97451.97;;;25.25;56.02
15489;BME280;7846;48.830;9.116;2022-10-15T10:52:29;97458.09;;;25.16;56.52
15489;BME280;7846;48.830;9.116;2022-10-15T10:57:47;97452.28;;;25.92;55.68
15489;BME280;7846;48.830;9.116;2022-10-15T11:02:56;97442.81;;;25.26;55.80
15489;BME280;7846;48.830;9.116;2022-10-15T11:05:26;97444.72;;;25.31;55.94
15489;BME280;7846;48.830;9.116;2022-10-15T11:11:02;97448.53;;;26.03;54.18
15489;BME280;7846;48.830;9.116;2022-10-15T11:13:57;97446.50;;;26.71;52.63
15489;BME280;7846;48.830;9.116;2022-10-15T11:19:36;97445.50;;;25.26;55.17
15489;BME280;7846;48.830;9.116;2022-10-15T11:25:07;97439.69;;;26.38;51.95
15489;BME280;7846;48.830;9.116;2022-10-15T11:30:34;97418.22;;;24.80;52.76
15489;BME280;7846;48.830;9.116;2022-10-15T11:33:15;97432.72;;;25.59;51.68
15489;BME280;7846;48.830;9.116;2022-10-15T11:41:46;97418.28;;;25.28;52.28
15489;BME280;7846;48.830;9.116;2022-10-15T11:44:26;97432.63;;;25.33;52.27
15489;BME280;7846;48.830;9.116;2022-10-15T11:47:02;97422.34;;;25.98;51.54
15489;BME280;7846;48.830;9.116;2022-10-15T11:55:07;97417.88;;;26.55;49.01
15489;BME280;7846;48.830;9.116;2022-10-15T11:57:38;97418.97;;;25.61;50.18
15489;BME280;7846;48.830;9.116;2022-10-15T12:00:14;97426.16;;;26.18;49.64
15489;BME280;7846;48.830;9.116;2022-10-15T12:02:42;97417.78;;;26.04;50.43
15489;BME280;7846;48.830;9.116;2022-10-15T12:05:24;97412.19;;;26.92;49.49
15489;BME280;7846;48.830;9.116;2022-10-15T12:07:52;97410.88;;;25.61;50.56
15489;BME280;7846;48.830;9.116;2022-10-15T12:16:35;97401.03;;;25.92;50.12
15489;BME280;7846;48.830;9.116;2022-10-15T12:19:16;97403.28;;;25.47;50.92
15489;BME280;7846;48.830;9.116;2022-10-15T12:22:06;97394.25;;;25.16;50.77
15489;BME280;7846;48.830;9.116;2022-10-15T12:32:39;97395.84;;;23.83;54.78
15489;BME280;7846;48.830;9.116;2022-10-15T12:35:18;97396.22;;;24.24;55.47
15489;BME280;7846;48.830;9.116;2022-10-15T12:37:46;97398.28;;;23.63;55.28
15489;BME280;7846;48.830;9.116;2022-10-15T12:40:26;97404.06;;;23.99;54.17
15489;BME280;7846;48.830;9.116;2022-10-15T12:43:02;97409.41;;;23.50;56.70
15489;BME280;7846;48.830;9.116;2022-10-15T12:45:35;97398.34;;;23.90;58.30
15489;BME280;7846;48.830;9.116;2022-10-15T12:50:34;97392.53;;;23.32;60.12
15489;BME280;7846;48.830;9.116;2022-10-15T12:56:11;97376.84;;;23.24;57.97
15489;BME280;7846;48.830;9.116;2022-10-15T12:58:49;97390.06;;;23.09;60.15
15489;BME280;7846;48.830;9.116;2022-10-15T13:08:47;97377.91;;;24.48;54.98
15489;BME280;7846;48.830;9.116;2022-10-15T13:11:27;97377.19;;;25.05;54.04
15489;BME280;7846;48.830;9.116;2022-10-15T13:16:41;97396.16;;;24.41;55.43
15489;BME280;7846;48.830;9.116;2022-10-15T13:21:58;97393.25;;;24.90;55.13
15489;BME280;7846;48.830;9.116;2022-10-15T13:24:26;97392.78;;;24.56;56.75
15489;BME280;7846;48.830;9.116;2022-10-15T13:26:53;97381.91;;;23.42;60.02
15489;BME280;7846;48.830;9.116;2022-10-15T13:29:21;97390.59;;;22.72;61.84
15489;BME280;7846;48.830;9.116;2022-10-15T13:31:52;97391.47;;;23.33;61.07
15489;BME280;7846;48.830;9.116;2022-10-15T13:34:31;97390.34;;;23.07;62.11
15489;BME280;7846;48.830;9.116;2022-10-15T13:37:02;97391.66;;;23.49;61.78
15489;BME280;7846;48.830;9.116;2022-10-15T13:39:36;97390.69;;;23.33;61.48
15489;BME280;7846;48.830;9.116;2022-10-15T13:44:33;97391.03;;;23.19;61.36
15489;BME280;7846;48.830;9.116;2022-10-15T13:47:00;97384.84;;;24.12;59.38
15489;BME280;7846;48.830;9.116;2022-10-15T13:49:25;97392.91;;;24.12;59.58
15489;BME280;7846;48.830;9.116;2022-10-15T13:51:52;97397.63;;;24.00;59.58
15489;BME280;7846;48.830;9.116;2022-10-15T13:54:23;97395.59;;;23.63;60.10
15489;BME280;7846;48.830;9.116;2022-10-15T13:56:57;97380.16;;;24.29;58.33
15489;BME280;7846;48.830;9.116;2022-10-15T13:59:25;97383.28;;;24.21;59.62
15489;BME280;7846;48.830;9.116;2022-10-15T14:01:56;97396.53;;;23.52;60.72
15489;BME280;7846;48.830;9.116;2022-10-15T14:04:26;97407.22;;;23.69;60.58
15489;BME280;7846;48.830;9.116;2022-10-15T14:06:57;97404.53;;;24.45;58.63
15489;BME280;7846;48.830;9.116;2022-10-15T14:09:38;97406.16;;;24.83;57.50
15489;BME280;7846;48.830;9.116;2022-10-15T14:12:06;97399.25;;;23.74;59.78
15489;BME280;7846;48.830;9.116;2022-10-15T14:14:34;97408.78;;;24.13;58.79
15489;BME280;7846;48.830;9.116;2022-10-15T14:17:03;97408.94;;;23.58;60.99
15489;BME280;7846;48.830;9.116;2022-10-15T14:19:30;97407.09;;;23.58;61.58
15489;BME280;7846;48.830;9.116;2022-10-15T14:22:02;97398.28;;;23.63;61.16
15489;BME280;7846;48.830;9.116;2022-10-15T14:24:32;97407.66;;;23.60;60.45
15489;BME280;7846;48.830;9.116;2022-10-15T14:27:26;97405.22;;;23.59;60.88
15489;BME280;7846;48.830;9.116;2022-10-15T14:29:54;97393.00;;;24.22;59.30
15489;BME280;7846;48.830;9.116;2022-10-15T14:32:27;97387.00;;;24.42;58.79
15489;BME280;7846;48.830;9.116;2022-10-15T14:34:57;97393.44;;;23.87;60.07
15489;BME280;7846;48.830;9.116;2022-10-15T14:37:38;97385.03;;;24.65;57.79
15489;BME280;7846;48.830;9.116;2022-10-15T14:42:40;97390.59;;;24.95;57.72
15489;BME280;7846;48.830;9.116;2022-10-15T14:45:24;97401.44;;;24.63;57.67
15489;BME280;7846;48.830;9.116;2022-10-15T14:47:54;97388.22;;;24.61;57.72
15489;BME280;7846;48.830;9.116;2022-10-15T14:50:30;97382.88;;;25.09;56.25
15489;BME280;7846;48.830;9.116;2022-10-15T14:52:57;97380.94;;;24.57;57.08
15489;BME280;7846;48.830;9.116;2022-10-15T14:55:28;97383.56;;;24.89;56.87
15489;BME280;7846;48.830;9.116;2022-10-15T14:58:07;97391.41;;;24.26;57.93
15489;BME280;7846;48.830;9.116;2022-10-15T15:00:39;97385.63;;;24.77;55.93
15489;BME280;7846;48.830;9.116;2022-10-15T15:03:05;97382.84;;;25.56;54.91
15489;BME280;7846;48.830;9.116;2022-10-15T15:05:44;97387.28;;;25.93;53.77
15489;BME280;7846;48.830;9.116;2022-10-15T15:08:10;97387.63;;;25.39;55.03
15489;BME280;7846;48.830;9.116;2022-10-15T15:10:35;97382.78;;;23.92;57.51